sensor_id;sensor_type;location;lat;lon;timestamp;P1;durP1;ratioP1;P2;durP2;ratioP2
13552;SDS011;6847;48.830;9.116;2022-08-30T00:01:04;0.10;;;0.10;;
13552;SDS011;6847;48.830;9.116;2022-08-30T00:03:31;0.10;;;0.10;;
13552;SDS011;6847;48.830;9.116;2022-08-30T00:06:00;0.17;;;0.17;;
13552;SDS011;6847;48.830;9.116;2022-08-30T00:08:29;0.10;;;0.10;;
13552;SDS011;6847;48.830;9.116;2022-08-30T00:10:56;0.10;;;0.10;;
13552;SDS011;6847;48.830;9.116;2022-08-30T00:13:23;0.10;;;0.10;;
13552;SDS011;6847;48.830;9.116;2022-08-30T00:15:50;0.10;;;0.10;;
13552;SDS011;6847;48.830;9.116;2022-08-30T00:18:18;0.10;;;0.10;;
13552;SDS011;6847;48.830;9.116;2022-08-30T00:20:47;0.10;;;0.10;;
13552;SDS011;6847;48.830;9.116;2022-08-30T00:23:15;0.10;;;0.10;;
13552;SDS011;6847;48.830;9.116;2022-08-30T00:25:43;0.15;;;0.15;;
13552;SDS011;6847;48.830;9.116;2022-08-30T00:28:09;0.10;;;0.10;;
13552;SDS011;6847;48.830;9.116;2022-08-30T00:30:36;0.10;;;0.10;;
13552;SDS011;6847;48.830;9.116;2022-08-30T00:33:03;0.10;;;0.10;;
13552;SDS011;6847;48.830;9.116;2022-08-30T00:35:33;0.10;;;0.10;;
13552;SDS011;6847;48.830;9.116;2022-08-30T00:38:00;0.20;;;0.20;;
13552;SDS011;6847;48.830;9.116;2022-08-30T00:40:27;0.10;;;0.10;;
13552;SDS011;6847;48.830;9.116;2022-08-30T00:42:56;0.10;;;0.10;;
13552;SDS011;6847;48.830;9.116;2022-08-30T00:45:28;0.10;;;0.10;;
13552;SDS011;6847;48.830;9.116;2022-08-30T00:47:56;0.10;;;0.10;;
13552;SDS011;6847;48.830;9.116;2022-08-30T00:50:28;0.10;;;0.10;;
13552;SDS011;6847;48.830;9.116;2022-08-30T00:53:06;0.10;;;0.10;;
13552;SDS011;6847;48.830;9.116;2022-08-30T00:55:35;0.10;;;0.10;;
13552;SDS011;6847;48.830;9.116;2022-08-30T00:58:02;0.10;;;0.10;;
13552;SDS011;6847;48.830;9.116;2022-08-30T01:00:36;0.10;;;0.10;;
13552;SDS011;6847;48.830;9.116;2022-08-30T01:03:20;0.10;;;0.10;;
13552;SDS011;6847;48.830;9.116;2022-08-30T01:05:46;0.10;;;0.10;;
13552;SDS011;6847;48.830;9.116;2022-08-30T01:08:21;0.10;;;0.10;;
13552;SDS011;6847;48.830;9.116;2022-08-30T01:10:55;0.10;;;0.10;;
13552;SDS011;6847;48.830;9.116;2022-08-30T01:13:24;0.10;;;0.10;;
13552;SDS011;6847;48.830;9.116;2022-08-30T01:15:51;0.10;;;0.10;;
13552;SDS011;6847;48.830;9.116;2022-08-30T01:18:24;0.10;;;0.10;;
13552;SDS011;6847;48.830;9.116;2022-08-30T01:20:54;0.10;;;0.10;;
13552;SDS011;6847;48.830;9.116;2022-08-30T01:23:29;0.20;;;0.20;;
13552;SDS011;6847;48.830;9.116;2022-08-30T01:25:58;0.10;;;0.10;;
13552;SDS011;6847;48.830;9.116;2022-08-30T01:28:26;0.10;;;0.10;;
13552;SDS011;6847;48.830;9.116;2022-08-30T01:30:55;0.10;;;0.10;;
13552;SDS011;6847;48.830;9.116;2022-08-30T01:33:21;0.10;;;0.10;;
13552;SDS011;6847;48.830;9.116;2022-08-30T01:35:55;0.10;;;0.10;;
13552;SDS011;6847;48.830;9.116;2022-08-30T01:38:32;0.10;;;0.10;;
13552;SDS011;6847;48.830;9.116;2022-08-30T01:41:07;0.10;;;0.10;;
13552;SDS011;6847;48.830;9.116;2022-08-30T01:43:37;0.10;;;0.10;;
13552;SDS011;6847;48.830;9.116;2022-08-30T01:46:07;0.10;;;0.10;;
13552;SDS011;6847;48.830;9.116;2022-08-30T01:48:36;0.10;;;0.10;;
13552;SDS011;6847;48.830;9.116;2022-08-30T01:51:08;0.10;;;0.10;;
13552;SDS011;6847;48.830;9.116;2022-08-30T01:53:40;0.10;;;0.10;;
13552;SDS011;6847;48.830;9.116;2022-08-30T01:56:09;0.10;;;0.10;;
13552;SDS011;6847;48.830;9.116;2022-08-30T01:58:39;0.10;;;0.10;;
13552;SDS011;6847;48.830;9.116;2022-08-30T02:01:09;0.10;;;0.10;;
13552;SDS011;6847;48.830;9.116;2022-08-30T02:03:40;0.10;;;0.10;;
13552;SDS011;6847;48.830;9.116;2022-08-30T02:06:12;0.10;;;0.10;;
13552;SDS011;6847;48.830;9.116;2022-08-30T02:08:43;0.10;;;0.10;;
13552;SDS011;6847;48.830;9.116;2022-08-30T02:11:13;0.10;;;0.10;;
13552;SDS011;6847;48.830;9.116;2022-08-30T02:13:44;0.10;;;0.10;;
13552;SDS011;6847;48.830;9.116;2022-08-30T02:16:12;0.10;;;0.10;;
13552;SDS011;6847;48.830;9.116;2022-08-30T02:18:43;0.10;;;0.10;;
13552;SDS011;6847;48.830;9.116;2022-08-30T02:21:17;0.10;;;0.10;;
13552;SDS011;6847;48.830;9.116;2022-08-30T02:23:48;0.10;;;0.10;;
13552;SDS011;6847;48.830;9.116;2022-08-30T02:26:15;0.10;;;0.10;;
13552;SDS011;6847;48.830;9.116;2022-08-30T02:28:47;0.10;;;0.10;;
13552;SDS011;6847;48.830;9.116;2022-08-30T02:31:18;0.10;;;0.10;;
13552;SDS011;6847;48.830;9.116;2022-08-30T02:33:47;0.10;;;0.10;;
13552;SDS011;6847;48.830;9.116;2022-08-30T02:36:23;0.15;;;0.15;;
13552;SDS011;6847;48.830;9.116;2022-08-30T02:38:55;0.10;;;0.10;;
13552;SDS011;6847;48.830;9.116;2022-08-30T02:41:23;0.10;;;0.10;;
13552;SDS011;6847;48.830;9.116;2022-08-30T02:43:49;0.10;;;0.10;;
13552;SDS011;6847;48.830;9.116;2022-08-30T02:46:22;0.10;;;0.10;;
13552;SDS011;6847;48.830;9.116;2022-08-30T02:48:55;0.10;;;0.10;;
13552;SDS011;6847;48.830;9.116;2022-08-30T02:51:21;0.10;;;0.10;;
13552;SDS011;6847;48.830;9.116;2022-08-30T02:53:52;0.10;;;0.10;;
13552;SDS011;6847;48.830;9.116;2022-08-30T02:56:21;0.10;;;0.10;;
13552;SDS011;6847;48.830;9.116;2022-08-30T02:58:55;0.10;;;0.10;;
13552;SDS011;6847;48.830;9.116;2022-08-30T03:01:22;0.10;;;0.10;;
13552;SDS011;6847;48.830;9.116;2022-08-30T03:03:50;0.10;;;0.10;;
13552;SDS011;6847;48.830;9.116;2022-08-30T03:09:17;0.10;;;0.10;;
13552;SDS011;6847;48.830;9.116;2022-08-30T03:11:44;0.10;;;0.10;;
13552;SDS011;6847;48.830;9.116;2022-08-30T03:14:10;0.10;;;0.10;;
13552;SDS011;6847;48.830;9.116;2022-08-30T03:16:37;0.10;;;0.10;;
13552;SDS011;6847;48.830;9.116;2022-08-30T03:19:06;0.10;;;0.10;;
13552;SDS011;6847;48.830;9.116;2022-08-30T03:21:35;0.10;;;0.10;;
13552;SDS011;6847;48.830;9.116;2022-08-30T03:24:15;0.10;;;0.10;;
13552;SDS011;6847;48.830;9.116;2022-08-30T03:26:44;0.10;;;0.10;;
13552;SDS011;6847;48.830;9.116;2022-08-30T03:29:11;0.10;;;0.10;;
13552;SDS011;6847;48.830;9.116;2022-08-30T03:31:43;0.10;;;0.10;;
13552;SDS011;6847;48.830;9.116;2022-08-30T03:34:15;0.10;;;0.10;;
13552;SDS011;6847;48.830;9.116;2022-08-30T03:36:47;0.10;;;0.10;;
13552;SDS011;6847;48.830;9.116;2022-08-30T03:39:22;0.10;;;0.10;;
13552;SDS011;6847;48.830;9.116;2022-08-30T03:41:51;0.10;;;0.10;;
13552;SDS011;6847;48.830;9.116;2022-08-30T03:44:19;0.10;;;0.10;;
13552;SDS011;6847;48.830;9.116;2022-08-30T03:46:49;0.10;;;0.10;;
13552;SDS011;6847;48.830;9.116;2022-08-30T03:49:17;0.10;;;0.10;;
13552;SDS011;6847;48.830;9.116;2022-08-30T03:51:51;0.10;;;0.10;;
13552;SDS011;6847;48.830;9.116;2022-08-30T03:54:26;0.10;;;0.10;;
13552;SDS011;6847;48.830;9.116;2022-08-30T03:56:57;0.10;;;0.10;;
13552;SDS011;6847;48.830;9.116;2022-08-30T03:59:24;0.10;;;0.10;;
13552;SDS011;6847;48.830;9.116;2022-08-30T04:01:51;0.10;;;0.10;;
13552;SDS011;6847;48.830;9.116;2022-08-30T04:04:21;0.10;;;0.10;;
13552;SDS011;6847;48.830;9.116;2022-08-30T04:06:47;0.10;;;0.10;;
13552;SDS011;6847;48.830;9.116;2022-08-30T04:09:14;0.10;;;0.10;;
13552;SDS011;6847;48.830;9.116;2022-08-30T04:11:44;0.10;;;0.10;;
13552;SDS011;6847;48.830;9.116;2022-08-30T04:14:11;0.10;;;0.10;;
13552;SDS011;6847;48.830;9.116;2022-08-30T04:16:41;0.10;;;0.10;;
13552;SDS011;6847;48.830;9.116;2022-08-30T04:19:07;0.10;;;0.10;;
13552;SDS011;6847;48.830;9.116;2022-08-30T04:21:34;0.10;;;0.10;;
13552;SDS011;6847;48.830;9.116;2022-08-30T04:24:04;0.10;;;0.10;;
13552;SDS011;6847;48.830;9.116;2022-08-30T04:26:31;0.10;;;0.10;;
13552;SDS011;6847;48.830;9.116;2022-08-30T04:28:59;0.00;;;0.00;;
13552;SDS011;6847;48.830;9.116;2022-08-30T04:31:28;0.10;;;0.10;;
13552;SDS011;6847;48.830;9.116;2022-08-30T04:33:55;0.10;;;0.10;;
13552;SDS011;6847;48.830;9.116;2022-08-30T04:36:24;0.10;;;0.10;;
13552;SDS011;6847;48.830;9.116;2022-08-30T04:38:51;0.10;;;0.10;;
13552;SDS011;6847;48.830;9.116;2022-08-30T04:41:18;0.10;;;0.10;;
13552;SDS011;6847;48.830;9.116;2022-08-30T04:43:53;0.00;;;0.00;;
13552;SDS011;6847;48.830;9.116;2022-08-30T04:46:24;0.10;;;0.10;;
13552;SDS011;6847;48.830;9.116;2022-08-30T04:48:50;0.10;;;0.10;;
13552;SDS011;6847;48.830;9.116;2022-08-30T04:51:17;0.10;;;0.10;;
13552;SDS011;6847;48.830;9.116;2022-08-30T04:53:44;0.10;;;0.10;;
13552;SDS011;6847;48.830;9.116;2022-08-30T04:56:15;0.10;;;0.10;;
13552;SDS011;6847;48.830;9.116;2022-08-30T04:58:46;0.10;;;0.10;;
13552;SDS011;6847;48.830;9.116;2022-08-30T05:01:17;0.10;;;0.10;;
13552;SDS011;6847;48.830;9.116;2022-08-30T05:06:35;0.10;;;0.10;;
13552;SDS011;6847;48.830;9.116;2022-08-30T05:09:02;0.10;;;0.10;;
13552;SDS011;6847;48.830;9.116;2022-08-30T05:11:28;0.10;;;0.10;;
13552;SDS011;6847;48.830;9.116;2022-08-30T05:13:55;0.10;;;0.10;;
13552;SDS011;6847;48.830;9.116;2022-08-30T05:16:24;0.10;;;0.10;;
13552;SDS011;6847;48.830;9.116;2022-08-30T05:18:51;0.10;;;0.10;;
13552;SDS011;6847;48.830;9.116;2022-08-30T05:21:24;0.10;;;0.10;;
13552;SDS011;6847;48.830;9.116;2022-08-30T05:23:56;0.10;;;0.10;;
13552;SDS011;6847;48.830;9.116;2022-08-30T05:26:28;0.10;;;0.10;;
13552;SDS011;6847;48.830;9.116;2022-08-30T05:28:57;0.10;;;0.10;;
13552;SDS011;6847;48.830;9.116;2022-08-30T05:31:28;0.10;;;0.10;;
13552;SDS011;6847;48.830;9.116;2022-08-30T05:33:58;0.10;;;0.10;;
13552;SDS011;6847;48.830;9.116;2022-08-30T05:36:28;0.10;;;0.10;;
13552;SDS011;6847;48.830;9.116;2022-08-30T05:39:06;0.10;;;0.10;;
13552;SDS011;6847;48.830;9.116;2022-08-30T05:41:37;0.10;;;0.10;;
13552;SDS011;6847;48.830;9.116;2022-08-30T05:44:05;0.10;;;0.10;;
13552;SDS011;6847;48.830;9.116;2022-08-30T05:46:36;0.10;;;0.10;;
13552;SDS011;6847;48.830;9.116;2022-08-30T05:49:19;0.10;;;0.10;;
13552;SDS011;6847;48.830;9.116;2022-08-30T05:51:48;0.10;;;0.10;;
13552;SDS011;6847;48.830;9.116;2022-08-30T05:54:18;0.10;;;0.10;;
13552;SDS011;6847;48.830;9.116;2022-08-30T05:56:45;0.10;;;0.10;;
13552;SDS011;6847;48.830;9.116;2022-08-30T05:59:15;0.10;;;0.10;;
13552;SDS011;6847;48.830;9.116;2022-08-30T06:01:42;0.10;;;0.10;;
13552;SDS011;6847;48.830;9.116;2022-08-30T06:04:15;0.10;;;0.10;;
13552;SDS011;6847;48.830;9.116;2022-08-30T06:06:49;0.10;;;0.10;;
13552;SDS011;6847;48.830;9.116;2022-08-30T06:09:16;0.10;;;0.10;;
13552;SDS011;6847;48.830;9.116;2022-08-30T06:11:44;0.10;;;0.10;;
13552;SDS011;6847;48.830;9.116;2022-08-30T06:14:13;0.10;;;0.10;;
13552;SDS011;6847;48.830;9.116;2022-08-30T06:16:43;0.10;;;0.10;;
13552;SDS011;6847;48.830;9.116;2022-08-30T06:19:12;0.10;;;0.10;;
13552;SDS011;6847;48.830;9.116;2022-08-30T06:21:40;0.20;;;0.20;;
13552;SDS011;6847;48.830;9.116;2022-08-30T06:24:17;0.10;;;0.10;;
13552;SDS011;6847;48.830;9.116;2022-08-30T06:26:46;0.10;;;0.10;;
13552;SDS011;6847;48.830;9.116;2022-08-30T06:29:16;0.10;;;0.10;;
13552;SDS011;6847;48.830;9.116;2022-08-30T06:31:48;0.10;;;0.10;;
13552;SDS011;6847;48.830;9.116;2022-08-30T06:34:17;0.10;;;0.10;;
13552;SDS011;6847;48.830;9.116;2022-08-30T06:36:44;0.20;;;0.20;;
13552;SDS011;6847;48.830;9.116;2022-08-30T06:39:11;0.10;;;0.10;;
13552;SDS011;6847;48.830;9.116;2022-08-30T06:41:44;0.10;;;0.10;;
13552;SDS011;6847;48.830;9.116;2022-08-30T06:44:12;0.10;;;0.10;;
13552;SDS011;6847;48.830;9.116;2022-08-30T06:46:39;0.10;;;0.10;;
13552;SDS011;6847;48.830;9.116;2022-08-30T06:49:06;0.10;;;0.10;;
13552;SDS011;6847;48.830;9.116;2022-08-30T06:51:38;0.10;;;0.10;;
13552;SDS011;6847;48.830;9.116;2022-08-30T06:54:06;0.20;;;0.20;;
13552;SDS011;6847;48.830;9.116;2022-08-30T06:56:34;0.10;;;0.10;;
13552;SDS011;6847;48.830;9.116;2022-08-30T06:59:05;0.20;;;0.20;;
13552;SDS011;6847;48.830;9.116;2022-08-30T07:01:35;0.10;;;0.10;;
13552;SDS011;6847;48.830;9.116;2022-08-30T07:04:12;0.10;;;0.10;;
13552;SDS011;6847;48.830;9.116;2022-08-30T07:06:38;0.10;;;0.10;;
13552;SDS011;6847;48.830;9.116;2022-08-30T07:09:06;0.13;;;0.13;;
13552;SDS011;6847;48.830;9.116;2022-08-30T07:11:38;0.40;;;0.40;;
13552;SDS011;6847;48.830;9.116;2022-08-30T07:14:07;0.20;;;0.20;;
13552;SDS011;6847;48.830;9.116;2022-08-30T07:16:35;0.20;;;0.20;;
13552;SDS011;6847;48.830;9.116;2022-08-30T07:19:02;0.20;;;0.20;;
13552;SDS011;6847;48.830;9.116;2022-08-30T07:21:33;0.10;;;0.10;;
13552;SDS011;6847;48.830;9.116;2022-08-30T07:24:04;0.20;;;0.20;;
13552;SDS011;6847;48.830;9.116;2022-08-30T07:26:43;0.10;;;0.10;;
13552;SDS011;6847;48.830;9.116;2022-08-30T07:29:18;0.10;;;0.10;;
13552;SDS011;6847;48.830;9.116;2022-08-30T07:31:48;0.20;;;0.20;;
13552;SDS011;6847;48.830;9.116;2022-08-30T07:34:42;0.13;;;0.13;;
13552;SDS011;6847;48.830;9.116;2022-08-30T07:37:08;0.15;;;0.15;;
13552;SDS011;6847;48.830;9.116;2022-08-30T07:39:35;0.17;;;0.17;;
13552;SDS011;6847;48.830;9.116;2022-08-30T07:42:02;0.10;;;0.10;;
13552;SDS011;6847;48.830;9.116;2022-08-30T07:44:38;0.10;;;0.10;;
13552;SDS011;6847;48.830;9.116;2022-08-30T07:47:04;0.13;;;0.13;;
13552;SDS011;6847;48.830;9.116;2022-08-30T07:49:42;0.10;;;0.10;;
13552;SDS011;6847;48.830;9.116;2022-08-30T07:52:10;0.10;;;0.10;;
13552;SDS011;6847;48.830;9.116;2022-08-30T07:54:37;0.20;;;0.20;;
13552;SDS011;6847;48.830;9.116;2022-08-30T07:57:07;0.20;;;0.20;;
13552;SDS011;6847;48.830;9.116;2022-08-30T07:59:35;0.20;;;0.20;;
13552;SDS011;6847;48.830;9.116;2022-08-30T08:02:08;0.20;;;0.20;;
13552;SDS011;6847;48.830;9.116;2022-08-30T08:04:37;0.20;;;0.20;;
13552;SDS011;6847;48.830;9.116;2022-08-30T08:07:08;0.20;;;0.20;;
13552;SDS011;6847;48.830;9.116;2022-08-30T08:09:35;0.20;;;0.20;;
13552;SDS011;6847;48.830;9.116;2022-08-30T08:12:05;0.20;;;0.20;;
13552;SDS011;6847;48.830;9.116;2022-08-30T08:14:34;0.20;;;0.20;;
13552;SDS011;6847;48.830;9.116;2022-08-30T08:17:05;0.20;;;0.20;;
13552;SDS011;6847;48.830;9.116;2022-08-30T08:19:32;0.22;;;0.22;;
13552;SDS011;6847;48.830;9.116;2022-08-30T08:21:59;0.20;;;0.20;;
13552;SDS011;6847;48.830;9.116;2022-08-30T08:24:27;0.20;;;0.20;;
13552;SDS011;6847;48.830;9.116;2022-08-30T08:26:56;0.20;;;0.20;;
13552;SDS011;6847;48.830;9.116;2022-08-30T08:29:23;0.20;;;0.20;;
13552;SDS011;6847;48.830;9.116;2022-08-30T08:31:52;0.30;;;0.30;;
13552;SDS011;6847;48.830;9.116;2022-08-30T08:34:20;0.15;;;0.15;;
13552;SDS011;6847;48.830;9.116;2022-08-30T08:36:51;0.30;;;0.30;;
13552;SDS011;6847;48.830;9.116;2022-08-30T08:39:18;0.40;;;0.40;;
13552;SDS011;6847;48.830;9.116;2022-08-30T08:41:52;0.20;;;0.20;;
13552;SDS011;6847;48.830;9.116;2022-08-30T08:44:33;0.30;;;0.30;;
13552;SDS011;6847;48.830;9.116;2022-08-30T08:47:12;0.40;;;0.40;;
13552;SDS011;6847;48.830;9.116;2022-08-30T08:49:45;0.40;;;0.40;;
13552;SDS011;6847;48.830;9.116;2022-08-30T08:52:16;0.40;;;0.40;;
13552;SDS011;6847;48.830;9.116;2022-08-30T08:55:06;0.30;;;0.30;;
13552;SDS011;6847;48.830;9.116;2022-08-30T08:57:39;0.35;;;0.35;;
13552;SDS011;6847;48.830;9.116;2022-08-30T09:00:09;0.30;;;0.30;;
13552;SDS011;6847;48.830;9.116;2022-08-30T09:02:38;0.40;;;0.40;;
13552;SDS011;6847;48.830;9.116;2022-08-30T09:05:14;0.30;;;0.30;;
13552;SDS011;6847;48.830;9.116;2022-08-30T09:07:45;0.40;;;0.40;;
13552;SDS011;6847;48.830;9.116;2022-08-30T09:10:17;0.30;;;0.30;;
13552;SDS011;6847;48.830;9.116;2022-08-30T09:12:46;0.30;;;0.30;;
13552;SDS011;6847;48.830;9.116;2022-08-30T09:15:15;0.30;;;0.30;;
13552;SDS011;6847;48.830;9.116;2022-08-30T09:24:12;0.30;;;0.30;;
13552;SDS011;6847;48.830;9.116;2022-08-30T09:26:41;0.40;;;0.40;;
13552;SDS011;6847;48.830;9.116;2022-08-30T09:29:15;0.38;;;0.38;;
13552;SDS011;6847;48.830;9.116;2022-08-30T09:31:45;0.50;;;0.50;;
13552;SDS011;6847;48.830;9.116;2022-08-30T09:34:21;0.32;;;0.32;;
13552;SDS011;6847;48.830;9.116;2022-08-30T09:36:53;0.40;;;0.40;;
13552;SDS011;6847;48.830;9.116;2022-08-30T09:42:10;0.43;;;0.43;;
13552;SDS011;6847;48.830;9.116;2022-08-30T09:44:45;0.32;;;0.32;;
13552;SDS011;6847;48.830;9.116;2022-08-30T09:47:17;0.60;;;0.60;;
13552;SDS011;6847;48.830;9.116;2022-08-30T09:49:47;0.50;;;0.50;;
13552;SDS011;6847;48.830;9.116;2022-08-30T09:52:16;0.40;;;0.40;;
13552;SDS011;6847;48.830;9.116;2022-08-30T09:54:58;0.45;;;0.45;;
13552;SDS011;6847;48.830;9.116;2022-08-30T10:00:15;0.30;;;0.30;;
13552;SDS011;6847;48.830;9.116;2022-08-30T10:02:55;0.45;;;0.45;;
13552;SDS011;6847;48.830;9.116;2022-08-30T10:05:31;0.40;;;0.40;;
13552;SDS011;6847;48.830;9.116;2022-08-30T10:08:09;0.40;;;0.40;;
13552;SDS011;6847;48.830;9.116;2022-08-30T10:10:56;0.32;;;0.32;;
13552;SDS011;6847;48.830;9.116;2022-08-30T10:13:51;0.40;;;0.40;;
13552;SDS011;6847;48.830;9.116;2022-08-30T10:16:31;0.40;;;0.40;;
13552;SDS011;6847;48.830;9.116;2022-08-30T10:19:16;0.40;;;0.40;;
13552;SDS011;6847;48.830;9.116;2022-08-30T10:21:57;0.50;;;0.50;;
13552;SDS011;6847;48.830;9.116;2022-08-30T10:24:30;0.40;;;0.40;;
13552;SDS011;6847;48.830;9.116;2022-08-30T10:27:05;0.40;;;0.40;;
13552;SDS011;6847;48.830;9.116;2022-08-30T10:29:37;0.45;;;0.45;;
13552;SDS011;6847;48.830;9.116;2022-08-30T10:32:13;0.40;;;0.40;;
13552;SDS011;6847;48.830;9.116;2022-08-30T10:34:47;0.60;;;0.60;;
13552;SDS011;6847;48.830;9.116;2022-08-30T10:37:19;0.55;;;0.55;;
13552;SDS011;6847;48.830;9.116;2022-08-30T10:39:50;0.40;;;0.40;;
13552;SDS011;6847;48.830;9.116;2022-08-30T10:42:21;0.35;;;0.35;;
13552;SDS011;6847;48.830;9.116;2022-08-30T10:44:54;0.40;;;0.40;;
13552;SDS011;6847;48.830;9.116;2022-08-30T10:47:30;0.40;;;0.40;;
13552;SDS011;6847;48.830;9.116;2022-08-30T10:50:05;0.40;;;0.40;;
13552;SDS011;6847;48.830;9.116;2022-08-30T10:52:41;0.32;;;0.32;;
13552;SDS011;6847;48.830;9.116;2022-08-30T10:55:20;0.40;;;0.40;;
13552;SDS011;6847;48.830;9.116;2022-08-30T10:58:09;0.50;;;0.50;;
13552;SDS011;6847;48.830;9.116;2022-08-30T11:00:40;0.40;;;0.40;;
13552;SDS011;6847;48.830;9.116;2022-08-30T11:03:30;0.43;;;0.43;;
13552;SDS011;6847;48.830;9.116;2022-08-30T11:06:15;0.40;;;0.40;;
